sensor_id;sensor_type;location;lat;lon;timestamp;temperature;humidity
14993;DHT22;7592;51.088;13.732;2023-03-01T00:03:42;-2.50;99.90
14993;DHT22;7592;51.088;13.732;2023-03-01T00:08:34;-2.50;99.90
14993;DHT22;7592;51.088;13.732;2023-03-01T00:13:26;-2.60;99.90
14993;DHT22;7592;51.088;13.732;2023-03-01T00:18:18;-2.70;99.90
14993;DHT22;7592;51.088;13.732;2023-03-01T00:23:10;-2.70;99.90
14993;DHT22;7592;51.088;13.732;2023-03-01T00:28:03;-2.80;99.90
14993;DHT22;7592;51.088;13.732;2023-03-01T00:32:55;-2.80;99.90
14993;DHT22;7592;51.088;13.732;2023-03-01T00:37:47;-2.80;99.90
14993;DHT22;7592;51.088;13.732;2023-03-01T00:42:39;-2.90;99.90
14993;DHT22;7592;51.088;13.732;2023-03-01T00:47:31;-2.90;99.90
14993;DHT22;7592;51.088;13.732;2023-03-01T00:52:23;-3.00;99.90
14993;DHT22;7592;51.088;13.732;2023-03-01T00:57:16;-3.10;99.90
14993;DHT22;7592;51.088;13.732;2023-03-01T01:02:08;-3.10;99.90
14993;DHT22;7592;51.088;13.732;2023-03-01T01:07:00;-3.10;99.90
14993;DHT22;7592;51.088;13.732;2023-03-01T01:11:52;-3.30;99.90
14993;DHT22;7592;51.088;13.732;2023-03-01T01:16:45;-3.30;99.90
14993;DHT22;7592;51.088;13.732;2023-03-01T01:21:37;-3.40;99.90
14993;DHT22;7592;51.088;13.732;2023-03-01T01:26:31;-3.40;99.90
14993;DHT22;7592;51.088;13.732;2023-03-01T01:31:25;-3.40;99.90
14993;DHT22;7592;51.088;13.732;2023-03-01T01:36:18;-3.40;99.90
14993;DHT22;7592;51.088;13.732;2023-03-01T01:41:11;-3.40;99.90
14993;DHT22;7592;51.088;13.732;2023-03-01T01:51:06;-3.50;99.90
14993;DHT22;7592;51.088;13.732;2023-03-01T01:56:00;-3.60;99.90
14993;DHT22;7592;51.088;13.732;2023-03-01T02:00:54;-3.60;99.90
14993;DHT22;7592;51.088;13.732;2023-03-01T02:11:23;-3.70;99.90
14993;DHT22;7592;51.088;13.732;2023-03-01T02:16:16;-3.60;99.90
14993;DHT22;7592;51.088;13.732;2023-03-01T02:26:38;-3.70;99.90
14993;DHT22;7592;51.088;13.732;2023-03-01T02:31:32;-3.80;99.90
14993;DHT22;7592;51.088;13.732;2023-03-01T02:36:39;-3.90;99.90
14993;DHT22;7592;51.088;13.732;2023-03-01T02:41:37;-4.00;99.90
14993;DHT22;7592;51.088;13.732;2023-03-01T02:46:29;-3.90;99.90
14993;DHT22;7592;51.088;13.732;2023-03-01T02:52:11;-3.90;99.90
14993;DHT22;7592;51.088;13.732;2023-03-01T02:56:52;-3.90;99.90
14993;DHT22;7592;51.088;13.732;2023-03-01T03:01:46;-4.10;99.90
14993;DHT22;7592;51.088;13.732;2023-03-01T03:06:38;-4.20;99.90
14993;DHT22;7592;51.088;13.732;2023-03-01T03:11:31;-4.20;99.90
14993;DHT22;7592;51.088;13.732;2023-03-01T03:16:24;-4.20;99.90
14993;DHT22;7592;51.088;13.732;2023-03-01T03:21:16;-4.20;99.90
14993;DHT22;7592;51.088;13.732;2023-03-01T03:26:09;-4.30;99.90
14993;DHT22;7592;51.088;13.732;2023-03-01T03:31:06;-4.30;99.90
14993;DHT22;7592;51.088;13.732;2023-03-01T03:35:58;-4.30;99.90
14993;DHT22;7592;51.088;13.732;2023-03-01T03:41:02;-4.30;99.90
14993;DHT22;7592;51.088;13.732;2023-03-01T03:45:54;-4.30;99.90
14993;DHT22;7592;51.088;13.732;2023-03-01T03:50:51;-4.30;99.90
14993;DHT22;7592;51.088;13.732;2023-03-01T03:55:43;-4.30;99.90
14993;DHT22;7592;51.088;13.732;2023-03-01T04:00:39;-4.50;99.90
14993;DHT22;7592;51.088;13.732;2023-03-01T04:05:31;-4.50;99.90
14993;DHT22;7592;51.088;13.732;2023-03-01T04:10:23;-4.50;99.90
14993;DHT22;7592;51.088;13.732;2023-03-01T04:15:15;-4.50;99.90
14993;DHT22;7592;51.088;13.732;2023-03-01T04:20:12;-4.60;99.90
14993;DHT22;7592;51.088;13.732;2023-03-01T04:25:06;-4.60;99.90
14993;DHT22;7592;51.088;13.732;2023-03-01T04:29:59;-4.70;99.90
14993;DHT22;7592;51.088;13.732;2023-03-01T04:34:51;-4.80;99.90
14993;DHT22;7592;51.088;13.732;2023-03-01T04:39:43;-4.80;99.90
14993;DHT22;7592;51.088;13.732;2023-03-01T04:44:37;-4.70;99.90
14993;DHT22;7592;51.088;13.732;2023-03-01T04:49:29;-4.70;99.90
14993;DHT22;7592;51.088;13.732;2023-03-01T04:54:21;-4.80;99.90
14993;DHT22;7592;51.088;13.732;2023-03-01T04:59:13;-4.90;99.90
14993;DHT22;7592;51.088;13.732;2023-03-01T05:04:05;-4.90;99.90
14993;DHT22;7592;51.088;13.732;2023-03-01T05:08:57;-4.80;99.90
14993;DHT22;7592;51.088;13.732;2023-03-01T05:13:49;-5.00;99.90
14993;DHT22;7592;51.088;13.732;2023-03-01T05:18:46;-5.00;99.90
14993;DHT22;7592;51.088;13.732;2023-03-01T05:23:39;-5.00;99.90
14993;DHT22;7592;51.088;13.732;2023-03-01T05:28:31;-5.00;99.90
14993;DHT22;7592;51.088;13.732;2023-03-01T05:33:24;-5.00;99.90
14993;DHT22;7592;51.088;13.732;2023-03-01T05:38:17;-5.00;99.90
14993;DHT22;7592;51.088;13.732;2023-03-01T05:43:09;-5.10;99.90
14993;DHT22;7592;51.088;13.732;2023-03-01T05:48:02;-5.00;99.90
14993;DHT22;7592;51.088;13.732;2023-03-01T05:53:15;-5.00;99.90
14993;DHT22;7592;51.088;13.732;2023-03-01T05:58:11;-5.00;99.90
14993;DHT22;7592;51.088;13.732;2023-03-01T06:03:06;-5.00;99.90
14993;DHT22;7592;51.088;13.732;2023-03-01T06:08:01;-4.90;99.90
14993;DHT22;7592;51.088;13.732;2023-03-01T06:12:53;-4.80;99.90
14993;DHT22;7592;51.088;13.732;2023-03-01T06:17:46;-4.70;99.90
14993;DHT22;7592;51.088;13.732;2023-03-01T06:22:38;-4.50;99.90
14993;DHT22;7592;51.088;13.732;2023-03-01T06:27:30;-4.20;99.90
14993;DHT22;7592;51.088;13.732;2023-03-01T06:32:23;-3.00;99.90
14993;DHT22;7592;51.088;13.732;2023-03-01T06:37:17;-2.20;99.90
14993;DHT22;7592;51.088;13.732;2023-03-01T06:42:09;-1.50;99.90
14993;DHT22;7592;51.088;13.732;2023-03-01T06:47:04;-0.70;99.90
14993;DHT22;7592;51.088;13.732;2023-03-01T06:51:57;-0.40;99.90
14993;DHT22;7592;51.088;13.732;2023-03-01T06:56:49;-0.40;99.90
14993;DHT22;7592;51.088;13.732;2023-03-01T07:01:42;0.20;99.90
14993;DHT22;7592;51.088;13.732;2023-03-01T07:06:34;1.30;99.90
14993;DHT22;7592;51.088;13.732;2023-03-01T07:11:26;1.70;99.90
14993;DHT22;7592;51.088;13.732;2023-03-01T07:16:18;2.00;99.90
14993;DHT22;7592;51.088;13.732;2023-03-01T07:21:13;1.30;99.90
14993;DHT22;7592;51.088;13.732;2023-03-01T07:26:05;0.50;99.90
14993;DHT22;7592;51.088;13.732;2023-03-01T07:31:02;0.30;99.90
14993;DHT22;7592;51.088;13.732;2023-03-01T07:36:02;0.70;99.90
14993;DHT22;7592;51.088;13.732;2023-03-01T07:40:58;0.50;99.90
14993;DHT22;7592;51.088;13.732;2023-03-01T07:45:50;1.20;99.90
14993;DHT22;7592;51.088;13.732;2023-03-01T07:50:43;2.30;99.90
14993;DHT22;7592;51.088;13.732;2023-03-01T07:55:36;5.30;99.90
14993;DHT22;7592;51.088;13.732;2023-03-01T08:00:28;8.90;99.90
14993;DHT22;7592;51.088;13.732;2023-03-01T08:05:20;10.30;96.20
14993;DHT22;7592;51.088;13.732;2023-03-01T08:10:14;10.70;92.40
14993;DHT22;7592;51.088;13.732;2023-03-01T08:15:06;10.10;90.30
14993;DHT22;7592;51.088;13.732;2023-03-01T08:19:59;9.10;91.40
14993;DHT22;7592;51.088;13.732;2023-03-01T08:24:51;10.10;90.30
14993;DHT22;7592;51.088;13.732;2023-03-01T08:29:43;12.60;82.00
14993;DHT22;7592;51.088;13.732;2023-03-01T08:34:35;13.80;76.90
14993;DHT22;7592;51.088;13.732;2023-03-01T08:39:28;13.20;73.70
14993;DHT22;7592;51.088;13.732;2023-03-01T08:44:20;11.50;76.70
14993;DHT22;7592;51.088;13.732;2023-03-01T08:49:19;10.00;81.80
14993;DHT22;7592;51.088;13.732;2023-03-01T08:54:19;8.90;85.20
14993;DHT22;7592;51.088;13.732;2023-03-01T08:59:13;7.20;91.20
14993;DHT22;7592;51.088;13.732;2023-03-01T09:04:05;6.40;95.10
14993;DHT22;7592;51.088;13.732;2023-03-01T09:08:58;7.20;97.00
14993;DHT22;7592;51.088;13.732;2023-03-01T09:13:52;10.40;91.80
14993;DHT22;7592;51.088;13.732;2023-03-01T09:18:44;13.30;81.20
14993;DHT22;7592;51.088;13.732;2023-03-01T09:23:42;14.70;72.00
14993;DHT22;7592;51.088;13.732;2023-03-01T09:28:38;14.40;69.40
14993;DHT22;7592;51.088;13.732;2023-03-01T09:33:33;14.00;70.70
14993;DHT22;7592;51.088;13.732;2023-03-01T09:38:25;14.00;69.40
14993;DHT22;7592;51.088;13.732;2023-03-01T09:43:37;16.20;64.90
14993;DHT22;7592;51.088;13.732;2023-03-01T09:48:41;18.10;59.50
14993;DHT22;7592;51.088;13.732;2023-03-01T09:53:34;19.50;55.90
14993;DHT22;7592;51.088;13.732;2023-03-01T10:09:13;20.90;51.00
14993;DHT22;7592;51.088;13.732;2023-03-01T10:19:40;21.10;49.10
14993;DHT22;7592;51.088;13.732;2023-03-01T10:24:35;21.20;49.00
14993;DHT22;7592;51.088;13.732;2023-03-01T10:29:37;21.60;48.20
14993;DHT22;7592;51.088;13.732;2023-03-01T10:34:33;21.90;47.30
14993;DHT22;7592;51.088;13.732;2023-03-01T10:39:26;19.60;48.20
14993;DHT22;7592;51.088;13.732;2023-03-01T10:49:28;19.80;48.80
14993;DHT22;7592;51.088;13.732;2023-03-01T10:54:32;19.70;47.30
14993;DHT22;7592;51.088;13.732;2023-03-01T10:59:32;20.00;46.80
14993;DHT22;7592;51.088;13.732;2023-03-01T11:04:25;20.00;46.80
14993;DHT22;7592;51.088;13.732;2023-03-01T11:09:21;18.70;47.60
14993;DHT22;7592;51.088;13.732;2023-03-01T11:19:21;18.40;48.00
14993;DHT22;7592;51.088;13.732;2023-03-01T11:24:15;17.50;48.60
14993;DHT22;7592;51.088;13.732;2023-03-01T11:29:16;18.80;48.30
14993;DHT22;7592;51.088;13.732;2023-03-01T11:34:17;19.90;46.20
14993;DHT22;7592;51.088;13.732;2023-03-01T11:44:31;18.30;48.10
14993;DHT22;7592;51.088;13.732;2023-03-01T11:54:51;17.10;48.20
14993;DHT22;7592;51.088;13.732;2023-03-01T12:10:27;15.10;49.50
14993;DHT22;7592;51.088;13.732;2023-03-01T12:16:32;12.90;51.20
14993;DHT22;7592;51.088;13.732;2023-03-01T12:47:07;7.80;72.80
14993;DHT22;7592;51.088;13.732;2023-03-01T13:02:27;6.80;70.50
14993;DHT22;7592;51.088;13.732;2023-03-01T13:12:51;6.90;72.10
14993;DHT22;7592;51.088;13.732;2023-03-01T13:17:44;7.00;72.90
14993;DHT22;7592;51.088;13.732;2023-03-01T13:22:37;7.00;72.80
14993;DHT22;7592;51.088;13.732;2023-03-01T13:27:46;7.20;73.40
14993;DHT22;7592;51.088;13.732;2023-03-01T13:32:38;7.20;71.00
14993;DHT22;7592;51.088;13.732;2023-03-01T13:37:37;7.10;71.30
14993;DHT22;7592;51.088;13.732;2023-03-01T13:42:41;7.10;73.40
14993;DHT22;7592;51.088;13.732;2023-03-01T13:47:41;6.90;73.80
14993;DHT22;7592;51.088;13.732;2023-03-01T13:52:43;7.10;73.10
14993;DHT22;7592;51.088;13.732;2023-03-01T13:57:37;7.00;72.60
14993;DHT22;7592;51.088;13.732;2023-03-01T14:02:33;6.90;71.60
14993;DHT22;7592;51.088;13.732;2023-03-01T14:07:27;7.00;71.10
14993;DHT22;7592;51.088;13.732;2023-03-01T14:18:22;7.00;69.20
14993;DHT22;7592;51.088;13.732;2023-03-01T14:23:22;7.10;70.50
14993;DHT22;7592;51.088;13.732;2023-03-01T14:28:24;7.00;70.30
14993;DHT22;7592;51.088;13.732;2023-03-01T14:33:26;7.10;71.70
14993;DHT22;7592;51.088;13.732;2023-03-01T14:38:23;7.00;73.00
14993;DHT22;7592;51.088;13.732;2023-03-01T14:43:22;6.90;74.40
14993;DHT22;7592;51.088;13.732;2023-03-01T14:48:18;6.90;75.60
14993;DHT22;7592;51.088;13.732;2023-03-01T14:53:18;6.80;76.40
14993;DHT22;7592;51.088;13.732;2023-03-01T14:58:18;6.90;77.20
14993;DHT22;7592;51.088;13.732;2023-03-01T15:08:29;6.90;78.60
14993;DHT22;7592;51.088;13.732;2023-03-01T15:13:26;6.90;78.50
14993;DHT22;7592;51.088;13.732;2023-03-01T15:18:25;6.80;79.50
14993;DHT22;7592;51.088;13.732;2023-03-01T15:23:26;6.80;79.00
14993;DHT22;7592;51.088;13.732;2023-03-01T15:28:19;6.80;79.70
14993;DHT22;7592;51.088;13.732;2023-03-01T15:38:25;6.70;81.00
14993;DHT22;7592;51.088;13.732;2023-03-01T15:43:56;6.70;80.50
14993;DHT22;7592;51.088;13.732;2023-03-01T15:48:52;6.60;81.50
14993;DHT22;7592;51.088;13.732;2023-03-01T15:53:50;6.60;81.90
14993;DHT22;7592;51.088;13.732;2023-03-01T15:58:45;6.50;83.10
14993;DHT22;7592;51.088;13.732;2023-03-01T16:03:37;6.40;84.30
14993;DHT22;7592;51.088;13.732;2023-03-01T16:08:30;6.30;85.80
14993;DHT22;7592;51.088;13.732;2023-03-01T16:13:22;6.20;87.10
14993;DHT22;7592;51.088;13.732;2023-03-01T16:18:14;6.10;87.80
14993;DHT22;7592;51.088;13.732;2023-03-01T16:23:08;6.00;89.40
14993;DHT22;7592;51.088;13.732;2023-03-01T16:28:00;5.90;90.80
14993;DHT22;7592;51.088;13.732;2023-03-01T16:32:56;5.80;91.60
14993;DHT22;7592;51.088;13.732;2023-03-01T16:37:49;5.40;94.60
14993;DHT22;7592;51.088;13.732;2023-03-01T16:42:41;5.20;99.90
14993;DHT22;7592;51.088;13.732;2023-03-01T16:47:33;4.90;99.90
14993;DHT22;7592;51.088;13.732;2023-03-01T16:52:26;4.80;99.90
14993;DHT22;7592;51.088;13.732;2023-03-01T16:57:18;4.60;99.90
14993;DHT22;7592;51.088;13.732;2023-03-01T17:02:15;4.50;99.90
14993;DHT22;7592;51.088;13.732;2023-03-01T17:07:10;4.30;99.90
14993;DHT22;7592;51.088;13.732;2023-03-01T17:12:04;4.10;99.90
14993;DHT22;7592;51.088;13.732;2023-03-01T17:16:56;3.90;99.90
14993;DHT22;7592;51.088;13.732;2023-03-01T17:21:49;3.60;99.90
14993;DHT22;7592;51.088;13.732;2023-03-01T17:26:42;3.30;99.90
14993;DHT22;7592;51.088;13.732;2023-03-01T17:31:34;3.20;99.90
14993;DHT22;7592;51.088;13.732;2023-03-01T17:36:26;2.90;99.90
14993;DHT22;7592;51.088;13.732;2023-03-01T17:41:18;2.80;99.90
14993;DHT22;7592;51.088;13.732;2023-03-01T17:46:11;2.60;99.90
14993;DHT22;7592;51.088;13.732;2023-03-01T17:51:07;2.40;99.90
14993;DHT22;7592;51.088;13.732;2023-03-01T17:56:02;2.30;99.90
14993;DHT22;7592;51.088;13.732;2023-03-01T18:00:55;2.20;99.90
14993;DHT22;7592;51.088;13.732;2023-03-01T18:05:47;2.40;99.90
14993;DHT22;7592;51.088;13.732;2023-03-01T18:10:39;2.40;99.90
14993;DHT22;7592;51.088;13.732;2023-03-01T18:15:32;2.20;99.90
14993;DHT22;7592;51.088;13.732;2023-03-01T18:20:25;2.10;99.90
14993;DHT22;7592;51.088;13.732;2023-03-01T18:25:19;2.20;99.90
14993;DHT22;7592;51.088;13.732;2023-03-01T18:30:11;2.10;99.90
14993;DHT22;7592;51.088;13.732;2023-03-01T18:35:04;2.10;99.90
14993;DHT22;7592;51.088;13.732;2023-03-01T18:39:56;2.00;99.90
14993;DHT22;7592;51.088;13.732;2023-03-01T18:44:48;2.00;99.90
14993;DHT22;7592;51.088;13.732;2023-03-01T18:49:41;2.00;99.90
14993;DHT22;7592;51.088;13.732;2023-03-01T18:54:33;2.00;99.90
14993;DHT22;7592;51.088;13.732;2023-03-01T18:59:26;2.00;99.90
14993;DHT22;7592;51.088;13.732;2023-03-01T19:04:19;1.90;99.90
14993;DHT22;7592;51.088;13.732;2023-03-01T19:09:11;1.80;99.90
14993;DHT22;7592;51.088;13.732;2023-03-01T19:14:07;1.80;99.90
14993;DHT22;7592;51.088;13.732;2023-03-01T19:19:01;1.80;99.90
14993;DHT22;7592;51.088;13.732;2023-03-01T19:23:54;1.90;99.90
14993;DHT22;7592;51.088;13.732;2023-03-01T19:28:46;1.80;99.90
14993;DHT22;7592;51.088;13.732;2023-03-01T19:33:39;1.70;99.90
14993;DHT22;7592;51.088;13.732;2023-03-01T19:38:32;1.70;99.90
14993;DHT22;7592;51.088;13.732;2023-03-01T19:43:24;1.60;99.90
14993;DHT22;7592;51.088;13.732;2023-03-01T19:48:16;1.40;99.90
14993;DHT22;7592;51.088;13.732;2023-03-01T19:53:08;1.20;99.90
14993;DHT22;7592;51.088;13.732;2023-03-01T19:58:00;1.10;99.90
14993;DHT22;7592;51.088;13.732;2023-03-01T20:02:52;1.00;99.90
14993;DHT22;7592;51.088;13.732;2023-03-01T20:07:44;1.10;99.90
14993;DHT22;7592;51.088;13.732;2023-03-01T20:12:36;1.00;99.90
14993;DHT22;7592;51.088;13.732;2023-03-01T20:17:28;0.80;99.90
14993;DHT22;7592;51.088;13.732;2023-03-01T20:22:20;0.60;99.90
14993;DHT22;7592;51.088;13.732;2023-03-01T20:27:12;0.60;99.90
14993;DHT22;7592;51.088;13.732;2023-03-01T20:32:06;0.40;99.90
14993;DHT22;7592;51.088;13.732;2023-03-01T20:36:58;0.40;99.90
14993;DHT22;7592;51.088;13.732;2023-03-01T20:41:50;0.30;99.90
14993;DHT22;7592;51.088;13.732;2023-03-01T20:46:42;0.10;99.90
14993;DHT22;7592;51.088;13.732;2023-03-01T20:51:34;0.00;99.90
14993;DHT22;7592;51.088;13.732;2023-03-01T20:56:26;0.10;99.90
14993;DHT22;7592;51.088;13.732;2023-03-01T21:01:27;0.00;99.90
14993;DHT22;7592;51.088;13.732;2023-03-01T21:06:20;0.00;99.90
14993;DHT22;7592;51.088;13.732;2023-03-01T21:11:12;0.10;99.90
14993;DHT22;7592;51.088;13.732;2023-03-01T21:16:10;0.00;99.90
14993;DHT22;7592;51.088;13.732;2023-03-01T21:21:07;-0.10;99.90
14993;DHT22;7592;51.088;13.732;2023-03-01T21:26:04;-0.10;99.90
14993;DHT22;7592;51.088;13.732;2023-03-01T21:31:14;-0.20;99.90
14993;DHT22;7592;51.088;13.732;2023-03-01T21:36:08;-0.10;99.90
14993;DHT22;7592;51.088;13.732;2023-03-01T21:41:05;-0.10;99.90
14993;DHT22;7592;51.088;13.732;2023-03-01T21:46:03;-0.20;99.90
14993;DHT22;7592;51.088;13.732;2023-03-01T21:50:57;-0.20;99.90
14993;DHT22;7592;51.088;13.732;2023-03-01T21:55:49;-0.20;99.90
14993;DHT22;7592;51.088;13.732;2023-03-01T22:00:42;-0.30;99.90
14993;DHT22;7592;51.088;13.732;2023-03-01T22:05:34;-0.60;99.90
14993;DHT22;7592;51.088;13.732;2023-03-01T22:10:26;-0.50;99.90
14993;DHT22;7592;51.088;13.732;2023-03-01T22:15:20;-0.70;99.90
14993;DHT22;7592;51.088;13.732;2023-03-01T22:20:12;-0.90;99.90
14993;DHT22;7592;51.088;13.732;2023-03-01T22:25:04;-0.90;99.90
14993;DHT22;7592;51.088;13.732;2023-03-01T22:29:57;-0.80;99.90
14993;DHT22;7592;51.088;13.732;2023-03-01T22:34:51;-0.80;99.90
14993;DHT22;7592;51.088;13.732;2023-03-01T22:39:43;-0.70;99.90
14993;DHT22;7592;51.088;13.732;2023-03-01T22:44:35;-0.80;99.90
14993;DHT22;7592;51.088;13.732;2023-03-01T22:49:27;-0.80;99.90
14993;DHT22;7592;51.088;13.732;2023-03-01T22:54:19;-0.90;99.90
14993;DHT22;7592;51.088;13.732;2023-03-01T22:59:14;-1.00;99.90
14993;DHT22;7592;51.088;13.732;2023-03-01T23:04:08;-1.00;99.90
14993;DHT22;7592;51.088;13.732;2023-03-01T23:09:01;-1.00;99.90
14993;DHT22;7592;51.088;13.732;2023-03-01T23:13:56;-1.10;99.90
14993;DHT22;7592;51.088;13.732;2023-03-01T23:18:48;-1.20;99.90
14993;DHT22;7592;51.088;13.732;2023-03-01T23:23:41;-1.20;99.90
14993;DHT22;7592;51.088;13.732;2023-03-01T23:28:35;-1.30;99.90
14993;DHT22;7592;51.088;13.732;2023-03-01T23:33:32;-1.40;99.90
14993;DHT22;7592;51.088;13.732;2023-03-01T23:38:28;-1.50;99.90
14993;DHT22;7592;51.088;13.732;2023-03-01T23:43:20;-1.50;99.90
14993;DHT22;7592;51.088;13.732;2023-03-01T23:48:13;-1.50;99.90
14993;DHT22;7592;51.088;13.732;2023-03-01T23:53:05;-1.60;99.90
14993;DHT22;7592;51.088;13.732;2023-03-01T23:57:57;-1.60;99.90
